Time;durP1;ratioP1;P1;durP2;ratioP2;P2;SDS_P1;SDS_P2;PMS_P1;PMS_P2;Temp;Humidity;BMP_temperature;BMP_pressure;BME280_temperature;BME280_humidity;BME280_pressure;Samples;Min_cycle;Max_cycle;Signal;HPM_P1;HPM_P2
2022/11/13 00:02:12;;;;;;;38.22;22.77;;;5.80;99.90;;;;;;5041334;28;20051;-69
2022/11/13 00:08:12;;;;;;;32.20;20.40;;;5.50;99.90;;;;;;5073405;28;20052;-69
2022/11/13 00:10:38;;;;;;;37.30;20.85;;;5.60;99.90;;;;;;5073251;28;20052;-69
2022/11/13 00:13:04;;;;;;;33.35;19.67;;;6.50;99.90;;;;;;5057517;28;20048;-69
2022/11/13 00:15:29;;;;;;;29.70;18.40;;;5.70;99.90;;;;;;5024503;28;20047;-69
2022/11/13 00:17:58;;;;;;;32.65;19.83;;;6.30;99.90;;;;;;5074158;28;20044;-69
2022/11/13 00:20:24;;;;;;;36.33;21.35;;;5.50;99.90;;;;;;5057703;28;20477;-69
2022/11/13 00:22:50;;;;;;;40.40;24.88;;;6.40;99.90;;;;;;5074086;28;20086;-68
2022/11/13 00:25:16;;;;;;;41.17;24.92;;;5.70;99.90;;;;;;5040871;28;20508;-69
2022/11/13 00:27:41;;;;;;;42.22;26.02;;;5.80;99.90;;;;;;5057637;28;20401;-69
2022/11/13 00:30:07;;;;;;;45.20;26.88;;;6.00;99.90;;;;;;5040679;28;20480;-69
2022/11/13 00:32:33;;;;;;;51.60;28.55;;;6.10;99.90;;;;;;5057523;28;20055;-70
2022/11/13 00:34:59;;;;;;;45.78;27.08;;;6.20;99.90;;;;;;5073892;28;20432;-69
2022/11/13 00:37:24;;;;;;;47.20;26.67;;;6.90;99.90;;;;;;5040820;28;20392;-69
2022/11/13 00:39:50;;;;;;;46.60;27.23;;;6.40;99.90;;;;;;5040242;28;20052;-69
2022/11/13 00:42:16;;;;;;;44.92;26.40;;;6.60;99.90;;;;;;5040391;28;20102;-69
2022/11/13 00:44:41;;;;;;;42.10;26.20;;;6.50;99.90;;;;;;5073587;28;20051;-69
2022/11/13 00:47:07;;;;;;;41.83;25.05;;;6.60;99.90;;;;;;5073580;28;20047;-69
2022/11/13 00:49:32;;;;;;;41.83;24.83;;;6.60;99.90;;;;;;5040598;28;20472;-69
2022/11/13 00:51:59;;;;;;;44.65;24.92;;;6.70;99.90;;;;;;5073616;28;20052;-69
2022/11/13 00:54:24;;;;;;;44.08;25.23;;;6.70;99.90;;;;;;5040569;28;20049;-69
2022/11/13 00:56:50;;;;;;;41.05;25.27;;;7.00;99.90;;;;;;5073180;28;20044;-69
2022/11/13 00:59:16;;;;;;;37.45;23.48;;;6.70;99.90;;;;;;5073456;28;20048;-69
2022/11/13 01:01:42;;;;;;;38.03;23.20;;;6.90;99.90;;;;;;5073487;28;20435;-69
2022/11/13 01:04:07;;;;;;;39.20;23.67;;;7.40;99.90;;;;;;5072889;28;20052;-69
2022/11/13 01:06:33;;;;;;;37.40;22.48;;;6.80;99.90;;;;;;5072973;28;20037;-69
2022/11/13 01:08:59;;;;;;;35.20;22.20;;;6.80;99.90;;;;;;5072630;28;20097;-69
2022/11/13 01:11:27;;;;;;;37.70;21.27;;;6.80;99.90;;;;;;5040009;28;20393;-70
2022/11/13 01:13:53;;;;;;;36.47;22.75;;;7.00;99.90;;;;;;5056323;28;20045;-69
2022/11/13 01:16:22;;;;;;;38.00;21.88;;;6.90;99.90;;;;;;5072818;28;20044;-69
2022/11/13 01:18:47;;;;;;;33.58;21.42;;;6.90;99.90;;;;;;5039984;28;20049;-70
2022/11/13 01:21:19;;;;;;;35.97;21.92;;;7.20;99.90;;;;;;5073045;28;20044;-69
2022/11/13 01:23:45;;;;;;;;;;;6.90;99.90;;;;;;5040293;28;20040;-69
2022/11/13 01:26:26;;;;;;;35.25;21.77;;;6.90;99.90;;;;;;5052659;28;19924;-69
2022/11/13 01:28:52;;;;;;;37.10;22.58;;;6.90;99.90;;;;;;5036581;28;20397;-69
2022/11/13 01:31:20;;;;;;;31.67;20.60;;;6.90;99.90;;;;;;5052780;28;20512;-69
2022/11/13 01:33:47;;;;;;;35.08;21.83;;;7.10;99.90;;;;;;5052883;28;20529;-70
2022/11/13 01:36:16;;;;;;;37.00;21.17;;;7.30;99.90;;;;;;5035566;28;20128;-70
2022/11/13 01:38:42;;;;;;;34.50;22.08;;;7.00;99.90;;;;;;5036272;28;20111;-69
2022/11/13 01:41:20;;;;;;;33.05;20.95;;;7.00;99.90;;;;;;5019586;28;20040;-69
2022/11/13 01:43:46;;;;;;;35.25;20.67;;;7.00;99.90;;;;;;5036200;28;20084;-70
2022/11/13 01:46:12;;;;;;;33.17;20.70;;;7.00;99.90;;;;;;5019560;28;20496;-69
2022/11/13 01:48:42;;;;;;;35.38;20.88;;;7.00;99.90;;;;;;5019623;28;20521;-70
2022/11/13 01:51:12;;;;;;;35.60;21.20;;;7.00;99.90;;;;;;5019415;28;20063;-69
2022/11/13 01:53:42;;;;;;;33.88;20.60;;;7.00;99.90;;;;;;5036075;28;20041;-69
2022/11/13 01:56:08;;;;;;;31.40;20.45;;;7.00;99.90;;;;;;5035524;28;20083;-69
2022/11/13 01:58:35;;;;;;;37.65;22.40;;;7.00;99.90;;;;;;5019459;28;20106;-69
2022/11/13 02:01:01;;;;;;;34.13;20.48;;;7.30;99.90;;;;;;5019512;28;20049;-69
2022/11/13 02:03:27;;;;;;;32.40;20.45;;;7.00;99.90;;;;;;5019288;28;20143;-69
2022/11/13 02:05:53;;;;;;;33.53;19.77;;;7.00;99.90;;;;;;5019376;28;20463;-69
2022/11/13 02:08:19;;;;;;;33.17;20.52;;;6.90;99.90;;;;;;5018721;28;20048;-70
2022/11/13 02:10:46;;;;;;;31.75;19.98;;;6.90;99.90;;;;;;5035669;28;20386;-70
2022/11/13 02:13:13;;;;;;;32.85;20.13;;;7.20;99.90;;;;;;5035373;28;20045;-70
2022/11/13 02:15:40;;;;;;;31.27;20.73;;;7.20;99.90;;;;;;5051821;28;20120;-69
2022/11/13 02:18:06;;;;;;;35.88;20.80;;;6.90;99.90;;;;;;5051510;28;20056;-69
2022/11/13 02:20:58;;;;;;;32.92;20.10;;;7.20;99.90;;;;;;5019086;28;20543;-69
2022/11/13 02:23:35;;;;;;;;;;;6.80;99.90;;;;;;5019392;28;20497;-69
2022/11/13 02:26:01;;;;;;;31.70;18.60;;;6.80;99.90;;;;;;5051781;28;19968;-69
2022/11/13 02:28:27;;;;;;;29.85;19.25;;;6.70;99.90;;;;;;5035201;28;20409;-69
2022/11/13 02:30:53;;;;;;;34.50;19.83;;;6.90;99.90;;;;;;5035338;28;20045;-69
2022/11/13 02:33:31;;;;;;;33.60;19.60;;;6.90;99.90;;;;;;5051935;28;20186;-69
2022/11/13 02:35:57;;;;;;;34.10;20.48;;;6.70;99.90;;;;;;5035230;28;20128;-69
2022/11/13 02:38:23;;;;;;;30.38;19.55;;;6.70;99.90;;;;;;5035125;28;20083;-69
2022/11/13 02:40:48;;;;;;;32.42;19.48;;;6.70;99.90;;;;;;5035381;28;20044;-70
2022/11/13 02:43:14;;;;;;;29.50;19.48;;;6.70;99.90;;;;;;5018621;28;20056;-70
2022/11/13 02:45:40;;;;;;;32.17;19.80;;;6.70;99.90;;;;;;5018797;28;20045;-70
2022/11/13 02:48:06;;;;;;;29.33;19.00;;;6.60;99.90;;;;;;5035308;28;20049;-70
2022/11/13 02:50:33;;;;;;;29.67;19.02;;;6.60;99.90;;;;;;5018595;28;20045;-69
2022/11/13 02:52:59;;;;;;;34.42;20.10;;;6.50;99.90;;;;;;5051863;28;20076;-70
2022/11/13 02:55:25;;;;;;;30.73;19.80;;;6.50;99.90;;;;;;5018249;28;20041;-70
2022/11/13 02:57:50;;;;;;;31.17;20.25;;;6.60;99.90;;;;;;5018706;28;20048;-69
2022/11/13 03:00:17;;;;;;;34.67;19.92;;;6.80;99.90;;;;;;5018422;28;20074;-70
2022/11/13 03:02:42;;;;;;;32.08;19.52;;;6.50;99.90;;;;;;5051625;28;20482;-69
2022/11/13 03:05:08;;;;;;;29.33;19.05;;;7.10;99.90;;;;;;5035037;28;20095;-69
2022/11/13 03:07:34;;;;;;;30.00;19.08;;;6.90;99.90;;;;;;5034890;28;20139;-70
2022/11/13 03:09:59;;;;;;;32.10;19.67;;;6.60;99.90;;;;;;5035110;28;20084;-70
2022/11/13 03:12:25;;;;;;;36.08;19.58;;;6.60;99.90;;;;;;5018112;28;20056;-69
2022/11/13 03:14:51;;;;;;;32.28;20.00;;;6.60;99.90;;;;;;5034894;28;20091;-69
2022/11/13 03:17:17;;;;;;;32.88;19.05;;;6.60;99.90;;;;;;5018204;28;20056;-69
2022/11/13 03:19:42;;;;;;;31.70;18.23;;;6.60;99.90;;;;;;5018558;28;20107;-69
2022/11/13 03:22:08;;;;;;;27.70;17.27;;;6.60;99.90;;;;;;5018562;28;20152;-70
2022/11/13 03:24:34;;;;;;;30.52;19.00;;;6.50;99.90;;;;;;5018265;28;20063;-69
2022/11/13 03:26:59;;;;;;;28.02;16.92;;;6.70;99.90;;;;;;5019857;28;20045;-69
2022/11/13 03:29:25;;;;;;;31.98;18.52;;;7.00;99.90;;;;;;5018290;28;20053;-69
2022/11/13 03:31:51;;;;;;;30.23;19.25;;;6.50;99.90;;;;;;5021264;28;20516;-69
2022/11/13 03:34:16;;;;;;;34.03;19.85;;;6.50;99.90;;;;;;5005674;28;20040;-69
2022/11/13 03:36:42;;;;;;;30.98;19.65;;;6.50;99.90;;;;;;5038279;28;20102;-70
2022/11/13 03:39:08;;;;;;;32.63;19.20;;;6.40;99.90;;;;;;5038598;28;20049;-70
2022/11/13 03:41:34;;;;;;;31.98;18.38;;;6.40;99.90;;;;;;5021903;28;20041;-69
2022/11/13 03:43:59;;;;;;;30.08;18.50;;;6.40;99.90;;;;;;5021688;28;20139;-69
2022/11/13 03:46:25;;;;;;;29.42;17.90;;;6.40;99.90;;;;;;5038122;28;20052;-70
2022/11/13 03:48:51;;;;;;;29.40;19.08;;;6.30;99.90;;;;;;5021414;28;20045;-70
2022/11/13 03:51:16;;;;;;;28.85;18.77;;;6.30;99.90;;;;;;5021759;28;20044;-69
2022/11/13 03:53:42;;;;;;;31.88;19.23;;;6.60;99.90;;;;;;5034464;28;20044;-69
2022/11/13 03:56:08;;;;;;;30.35;18.30;;;6.30;99.90;;;;;;5057917;28;20477;-69
2022/11/13 03:58:34;;;;;;;28.77;18.55;;;6.80;99.90;;;;;;5058001;28;20037;-69
2022/11/13 04:00:59;;;;;;;25.55;16.08;;;6.20;99.90;;;;;;5041527;28;20044;-69
2022/11/13 04:03:25;;;;;;;28.92;17.92;;;6.10;99.90;;;;;;5041290;28;20048;-69
2022/11/13 04:05:51;;;;;;;27.30;16.48;;;6.10;99.90;;;;;;5041415;28;20040;-69
2022/11/13 04:08:17;;;;;;;30.25;18.67;;;6.00;99.90;;;;;;5041387;28;20045;-69
2022/11/13 04:10:43;;;;;;;28.85;17.45;;;6.00;99.90;;;;;;5024563;28;20472;-69
2022/11/13 04:13:09;;;;;;;27.30;17.55;;;6.00;99.90;;;;;;5057889;28;20139;-69
2022/11/13 04:15:35;;;;;;;25.95;16.92;;;6.00;99.90;;;;;;5057451;28;20123;-69
2022/11/13 04:18:01;;;;;;;28.92;17.40;;;5.90;99.90;;;;;;5041302;28;20044;-69
2022/11/13 04:20:27;;;;;;;30.70;18.50;;;5.90;99.90;;;;;;5057517;28;20052;-70
2022/11/13 04:22:56;;;;;;;31.10;18.60;;;5.90;99.90;;;;;;5057325;28;20084;-70
2022/11/13 04:25:23;;;;;;;27.75;17.00;;;5.80;99.90;;;;;;5040544;28;20409;-70
2022/11/13 04:27:52;;;;;;;28.00;16.23;;;5.80;99.90;;;;;;5057618;28;20052;-69
2022/11/13 04:30:18;;;;;;;26.73;15.57;;;5.70;99.90;;;;;;5041010;28;20052;-69
2022/11/13 04:32:44;;;;;;;24.70;15.55;;;5.60;99.90;;;;;;5024219;28;20094;-69
2022/11/13 04:35:10;;;;;;;26.60;16.73;;;5.60;99.90;;;;;;5040835;28;20102;-69
2022/11/13 04:37:35;;;;;;;26.92;16.92;;;5.60;99.90;;;;;;5040692;28;20055;-69
2022/11/13 04:40:02;;;;;;;30.02;17.90;;;5.60;99.90;;;;;;5024424;28;20048;-69
2022/11/13 04:45:11;;;;;;;25.27;13.55;;;5.50;99.90;;;;;;5043292;28;20063;-69
2022/11/13 04:47:37;;;;;;;17.27;12.13;;;5.40;99.90;;;;;;5056999;28;20056;-70
2022/11/13 04:50:03;;;;;;;19.00;12.50;;;5.80;99.90;;;;;;5040619;28;20045;-70
2022/11/13 04:52:29;;;;;;;20.77;13.35;;;5.30;99.90;;;;;;5040402;28;20048;-69
2022/11/13 04:54:56;;;;;;;24.00;15.45;;;5.30;99.90;;;;;;5057003;28;20040;-70
2022/11/13 04:57:21;;;;;;;25.10;15.65;;;5.40;99.90;;;;;;5056938;28;20049;-69
2022/11/13 04:59:47;;;;;;;29.40;16.17;;;5.30;99.90;;;;;;5040211;28;20078;-69
2022/11/13 05:02:13;;;;;;;33.33;18.60;;;5.40;99.90;;;;;;5057091;28;20392;-69
2022/11/13 05:04:38;;;;;;;25.25;15.85;;;5.40;99.90;;;;;;5056343;28;20040;-70
2022/11/13 05:07:04;;;;;;;30.98;18.27;;;5.40;99.90;;;;;;5056921;28;20044;-70
2022/11/13 05:09:30;;;;;;;25.70;15.98;;;5.90;99.90;;;;;;5056684;28;20044;-72
2022/11/13 05:11:55;;;;;;;23.45;15.25;;;5.50;99.90;;;;;;5040279;28;20045;-69
2022/11/13 05:14:21;;;;;;;21.00;13.23;;;5.30;99.90;;;;;;5040187;28;20481;-70
2022/11/13 05:16:48;;;;;;;23.13;14.18;;;5.20;99.90;;;;;;5056206;28;20051;-70
2022/11/13 05:19:14;;;;;;;25.23;14.57;;;5.20;99.90;;;;;;5056635;28;20090;-70
2022/11/13 05:21:40;;;;;;;27.38;16.85;;;5.40;99.90;;;;;;5056392;28;20041;-69
2022/11/13 05:24:08;;;;;;;30.73;18.23;;;5.20;99.90;;;;;;5023408;28;20055;-70
2022/11/13 05:26:36;;;;;;;30.45;18.05;;;5.30;99.90;;;;;;5038976;28;20412;-69
2022/11/13 05:29:02;;;;;;;32.13;17.90;;;5.30;99.90;;;;;;5056465;28;20468;-69
2022/11/13 05:31:28;;;;;;;26.98;16.48;;;5.30;99.90;;;;;;5039861;28;20052;-70
2022/11/13 05:33:54;;;;;;;34.97;18.05;;;5.20;99.90;;;;;;5055863;28;20454;-69
2022/11/13 05:36:21;;;;;;;33.33;18.52;;;5.20;99.90;;;;;;5055862;28;20052;-70
2022/11/13 05:38:47;;;;;;;33.30;19.17;;;5.20;99.90;;;;;;5055986;28;20052;-70
2022/11/13 05:41:17;;;;;;;26.25;16.25;;;5.20;99.90;;;;;;5039682;28;20080;-69
2022/11/13 05:43:44;;;;;;;28.55;18.02;;;5.20;99.90;;;;;;5055981;28;20040;-70
2022/11/13 05:46:13;;;;;;;25.23;15.15;;;5.10;99.90;;;;;;5056202;28;20091;-70
2022/11/13 05:48:39;;;;;;;27.83;16.60;;;5.90;99.90;;;;;;5039341;28;20087;-69
2022/11/13 05:51:12;;;;;;;31.27;17.23;;;5.00;99.90;;;;;;5056040;28;20400;-70
2022/11/13 05:53:38;;;;;;;36.45;19.27;;;5.00;99.90;;;;;;5055186;28;20037;-70
2022/11/13 05:56:07;;;;;;;28.38;17.17;;;6.30;99.90;;;;;;5039189;28;20484;-70
2022/11/13 05:58:33;;;;;;;29.20;17.25;;;5.10;99.90;;;;;;5039292;28;20056;-70
2022/11/13 06:01:08;;;;;;;27.55;16.88;;;5.00;99.90;;;;;;5055461;28;20056;-70
2022/11/13 06:03:34;;;;;;;29.58;17.17;;;5.50;99.90;;;;;;5055753;28;20048;-70
2022/11/13 06:06:00;;;;;;;29.25;17.02;;;6.40;99.90;;;;;;5055522;28;20549;-69
2022/11/13 06:08:26;;;;;;;25.98;16.52;;;4.90;99.90;;;;;;5055668;28;20040;-69
2022/11/13 06:10:52;;;;;;;24.67;14.10;;;4.90;99.90;;;;;;5038554;28;20067;-69
2022/11/13 06:13:17;;;;;;;28.83;15.43;;;4.90;99.90;;;;;;5027705;28;20127;-69
2022/11/13 06:15:43;;;;;;;30.23;16.90;;;5.40;99.90;;;;;;5027696;28;20041;-69
2022/11/13 06:18:09;;;;;;;28.33;16.95;;;4.80;99.90;;;;;;5019820;28;20569;-70
2022/11/13 06:20:37;;;;;;;28.88;17.48;;;4.70;99.90;;;;;;5038591;28;20071;-70
2022/11/13 06:23:03;;;;;;;29.80;17.17;;;5.00;99.90;;;;;;5005513;28;20496;-69
2022/11/13 06:25:28;;;;;;;26.52;17.40;;;5.50;99.90;;;;;;5055188;28;20060;-69
2022/11/13 06:27:54;;;;;;;36.25;19.10;;;4.70;99.90;;;;;;5056341;28;20137;-69
2022/11/13 06:30:20;;;;;;;31.00;18.40;;;4.70;99.90;;;;;;5038367;28;20485;-69
2022/11/13 06:32:53;;;;;;;33.05;19.17;;;4.70;99.90;;;;;;5038336;28;20041;-69
2022/11/13 06:35:18;;;;;;;34.92;18.85;;;4.70;99.90;;;;;;5054757;28;20123;-69
2022/11/13 06:37:44;;;;;;;36.20;18.90;;;5.00;99.90;;;;;;5038297;28;20087;-69
2022/11/13 06:40:11;;;;;;;34.22;19.17;;;4.70;99.90;;;;;;5038310;28;20048;-69
2022/11/13 06:42:36;;;;;;;30.48;18.23;;;4.60;99.90;;;;;;5038427;28;20455;-69
2022/11/13 06:45:03;;;;;;;34.35;18.60;;;4.60;99.90;;;;;;5054778;28;20040;-69
2022/11/13 06:47:28;;;;;;;33.45;19.10;;;4.60;99.90;;;;;;5054965;28;20056;-69
2022/11/13 06:49:54;;;;;;;37.38;19.30;;;4.70;99.90;;;;;;5037926;28;20500;-70
2022/11/13 06:52:20;;;;;;;34.78;18.95;;;4.70;99.90;;;;;;5038341;28;20101;-69
2022/11/13 06:54:45;;;;;;;32.17;19.52;;;4.70;99.90;;;;;;5037974;28;20495;-71
2022/11/13 06:57:11;;;;;;;35.72;20.50;;;4.80;99.90;;;;;;5021592;28;20048;-69
2022/11/13 06:59:37;;;;;;;40.38;19.38;;;4.90;99.90;;;;;;5038634;28;20055;-69
2022/11/13 07:02:03;;;;;;;35.50;19.08;;;4.80;99.90;;;;;;5038321;28;20044;-69
2022/11/13 07:04:28;;;;;;;34.65;19.63;;;4.80;99.90;;;;;;5054985;28;20052;-69
2022/11/13 07:06:54;;;;;;;34.72;20.20;;;5.30;99.90;;;;;;5041405;28;20393;-70
2022/11/13 07:09:20;;;;;;;37.72;20.08;;;4.90;99.90;;;;;;5025886;28;20135;-69
2022/11/13 07:11:46;;;;;;;36.38;20.55;;;5.00;99.90;;;;;;5059038;28;20044;-69
2022/11/13 07:14:11;;;;;;;40.00;21.73;;;5.00;99.90;;;;;;5042242;28;20048;-69
2022/11/13 07:16:38;;;;;;;39.47;21.45;;;5.10;99.90;;;;;;5058684;28;20048;-69
2022/11/13 07:19:04;;;;;;;35.65;20.17;;;5.90;99.90;;;;;;5042174;28;20401;-70
2022/11/13 07:21:30;;;;;;;35.35;19.48;;;5.20;99.90;;;;;;5041795;28;20053;-69
2022/11/13 07:23:56;;;;;;;36.78;20.08;;;5.20;99.90;;;;;;5058364;28;20083;-69
2022/11/13 07:26:22;;;;;;;36.70;21.08;;;5.30;99.90;;;;;;5046174;28;20052;-69
2022/11/13 07:28:48;;;;;;;42.50;21.65;;;5.30;99.90;;;;;;5062016;28;20056;-70
2022/11/13 07:31:15;;;;;;;37.50;20.92;;;5.40;99.90;;;;;;5078289;28;20040;-69
2022/11/13 07:33:41;;;;;;;39.53;22.55;;;5.60;99.90;;;;;;5078587;28;20067;-69
2022/11/13 07:36:07;;;;;;;37.85;21.42;;;5.60;99.90;;;;;;5078084;28;20044;-69
2022/11/13 07:38:33;;;;;;;45.35;23.13;;;5.60;99.90;;;;;;5078539;28;20062;-70
2022/11/13 07:40:59;;;;;;;39.55;21.58;;;5.70;99.90;;;;;;5061721;28;20047;-69
2022/11/13 07:43:25;;;;;;;35.58;20.80;;;5.80;99.90;;;;;;5061663;28;20047;-69
2022/11/13 07:45:53;;;;;;;39.90;21.10;;;5.80;99.90;;;;;;5061755;28;20048;-69
2022/11/13 07:48:20;;;;;;;34.67;20.85;;;5.90;99.90;;;;;;5062102;28;20105;-69
2022/11/13 07:50:47;;;;;;;35.60;21.55;;;5.90;99.90;;;;;;5078213;28;20569;-69
2022/11/13 07:53:12;;;;;;;34.75;19.85;;;6.00;99.90;;;;;;5078033;28;20077;-69
2022/11/13 07:55:38;;;;;;;34.17;20.20;;;6.10;99.90;;;;;;5061496;28;20043;-69
2022/11/13 07:58:05;;;;;;;32.10;20.25;;;6.10;99.90;;;;;;5027911;28;20132;-69
2022/11/13 08:00:33;;;;;;;33.08;19.75;;;6.20;99.90;;;;;;5077932;28;20052;-69
2022/11/13 08:03:07;;;;;;;31.10;19.27;;;6.20;99.90;;;;;;5077042;28;20047;-69
2022/11/13 08:05:33;;;;;;;33.55;19.38;;;6.30;99.90;;;;;;5061227;28;20052;-69
2022/11/13 08:07:59;;;;;;;32.35;19.58;;;6.60;99.90;;;;;;5029357;28;20079;-69
2022/11/13 08:10:25;;;;;;;29.75;18.30;;;6.50;99.90;;;;;;5057853;28;20108;-69
2022/11/13 08:13:01;;;;;;;30.58;19.33;;;6.50;99.90;;;;;;5057672;28;20041;-69
2022/11/13 08:15:28;;;;;;;29.70;18.85;;;6.10;99.90;;;;;;5056185;28;20051;-69
2022/11/13 08:18:00;;;;;;;30.90;18.58;;;6.70;99.90;;;;;;5040130;28;20124;-69
2022/11/13 08:20:28;;;;;;;28.83;18.15;;;6.80;99.90;;;;;;5040644;28;20044;-69
2022/11/13 08:23:02;;;;;;;29.30;18.10;;;6.90;99.90;;;;;;5057373;28;20560;-69
2022/11/13 08:25:29;;;;;;;23.83;16.80;;;7.00;99.90;;;;;;5040345;28;20055;-70
2022/11/13 08:27:55;;;;;;;28.67;17.50;;;7.10;99.90;;;;;;5024861;28;20486;-69
2022/11/13 08:30:21;;;;;;;26.50;17.27;;;7.20;99.90;;;;;;5004330;28;20059;-68
2022/11/13 08:32:47;;;;;;;24.13;16.77;;;7.30;99.90;;;;;;5037204;28;20049;-69
2022/11/13 08:35:13;;;;;;;24.17;16.17;;;7.40;99.90;;;;;;5036762;28;20056;-69
2022/11/13 08:37:39;;;;;;;23.05;15.73;;;7.50;99.90;;;;;;5004176;28;20095;-69
2022/11/13 08:40:05;;;;;;;24.27;16.15;;;8.40;99.90;;;;;;5020541;28;20049;-69
2022/11/13 08:42:31;;;;;;;21.33;15.75;;;7.60;99.90;;;;;;5037335;28;20082;-69
2022/11/13 08:44:57;;;;;;;23.85;16.02;;;7.80;99.90;;;;;;5020507;28;20470;-69
2022/11/13 08:47:23;;;;;;;23.55;15.95;;;7.90;99.90;;;;;;5020526;28;20045;-69
2022/11/13 08:49:48;;;;;;;22.83;15.18;;;8.00;99.90;;;;;;5037214;28;20041;-68
2022/11/13 08:52:14;;;;;;;22.40;15.48;;;8.10;99.90;;;;;;5003893;28;20085;-69
2022/11/13 08:54:40;;;;;;;21.73;15.57;;;8.20;99.90;;;;;;5020428;28;20060;-69
2022/11/13 08:57:06;;;;;;;21.92;14.77;;;8.30;99.90;;;;;;5019649;28;20516;-69
2022/11/13 08:59:32;;;;;;;19.95;14.40;;;8.40;99.90;;;;;;5036847;28;20041;-69
2022/11/13 09:01:58;;;;;;;20.58;15.15;;;8.50;99.90;;;;;;5019856;28;20133;-69
2022/11/13 09:04:27;;;;;;;22.77;14.80;;;8.60;99.90;;;;;;5020076;28;20667;-70
2022/11/13 09:06:53;;;;;;;20.73;14.25;;;8.60;99.90;;;;;;5023337;28;20049;-69
2022/11/13 10:59:03;;;;;;;16.48;12.20;;;11.90;99.90;;;;;;5092968;28;20667;-70
2022/11/13 11:01:29;;;;;;;16.73;12.35;;;12.20;99.90;;;;;;5071799;28;20107;-70
2022/11/13 11:03:55;;;;;;;16.27;12.32;;;12.30;99.90;;;;;;5072048;28;20429;-69
2022/11/13 11:06:34;;;;;;;16.17;11.95;;;12.60;99.90;;;;;;5054367;28;20149;-69
2022/11/13 11:09:28;;;;;;;15.90;11.60;;;12.80;99.90;;;;;;5052642;28;20123;-69
2022/11/13 11:12:15;;;;;;;16.60;12.18;;;12.80;99.90;;;;;;5033859;28;20142;-69
2022/11/13 11:14:50;;;;;;;14.65;11.32;;;13.00;99.90;;;;;;5035282;28;20048;-70
2022/11/13 11:17:20;;;;;;;14.85;11.75;;;13.10;99.90;;;;;;5051538;28;20045;-70
2022/11/13 11:19:56;;;;;;;14.47;11.57;;;13.50;99.90;;;;;;4700396;28;9999727;-71
2022/11/13 11:22:26;;;;;;;15.40;11.30;;;13.70;99.90;;;;;;5035467;28;20052;-70
2022/11/13 11:25:05;;;;;;;14.93;11.27;;;14.10;99.90;;;;;;5070281;28;20128;-70
2022/11/13 11:27:40;;;;;;;12.23;10.48;;;14.50;99.90;;;;;;5054369;28;20048;-70
2022/11/13 11:30:21;;;;;;;13.07;10.52;;;15.10;99.90;;;;;;5069554;28;20040;-70
2022/11/13 11:33:09;;;;;;;15.23;11.00;;;15.30;99.90;;;;;;5072011;28;20040;-71
2022/11/13 11:35:58;;;;;;;11.90;10.27;;;15.40;99.90;;;;;;5071687;28;20063;-70
2022/11/13 11:38:35;;;;;;;13.63;10.27;;;15.70;99.90;;;;;;5041613;28;20093;-71
2022/11/13 11:41:13;;;;;;;12.52;10.73;;;16.30;99.90;;;;;;5048635;28;20616;-70
2022/11/13 11:43:48;;;;;;;12.23;10.48;;;16.60;99.90;;;;;;5026308;28;20085;-71
2022/11/13 11:46:21;;;;;;;12.48;10.30;;;17.00;99.90;;;;;;5054733;28;20044;-71
2022/11/13 11:48:47;;;;;;;12.68;10.10;;;17.00;99.90;;;;;;5045450;28;20582;-70
2022/11/13 11:51:29;;;;;;;14.65;10.10;;;17.30;99.90;;;;;;5054902;28;20456;-70
2022/11/13 11:54:10;;;;;;;11.48;9.95;;;17.50;99.90;;;;;;5065219;28;20041;-70
2022/11/13 11:56:44;;;;;;;11.38;9.73;;;17.40;99.90;;;;;;5069890;28;20040;-71
2022/11/13 11:59:13;;;;;;;12.25;9.82;;;17.70;99.90;;;;;;5054938;28;20411;-71
2022/11/13 12:02:06;;;;;;;10.88;9.30;;;17.80;99.90;;;;;;5060302;28;20059;-71
2022/11/13 12:04:56;;;;;;;10.45;9.25;;;18.00;99.90;;;;;;5069239;28;20044;-71
2022/11/13 12:07:48;;;;;;;12.02;10.05;;;18.10;99.90;;;;;;5059827;28;20484;-70
2022/11/13 12:10:13;;;;;;;;;;;18.30;99.90;;;;;;5063850;28;20419;-71
2022/11/13 12:13:17;;;;;;;10.38;9.27;;;18.40;99.90;;;;;;5070086;28;19916;-71
2022/11/13 12:15:59;;;;;;;11.70;10.00;;;18.50;99.90;;;;;;5062267;28;20154;-71
2022/11/13 12:18:37;;;;;;;10.75;9.60;;;18.70;99.90;;;;;;5066914;28;20542;-71
2022/11/13 12:21:36;;;;;;;12.18;10.02;;;18.90;99.90;;;;;;5058226;28;20501;-70
2022/11/13 12:24:24;;;;;;;11.10;9.80;;;18.90;99.90;;;;;;5064373;28;20071;-71
2022/11/13 12:27:03;;;;;;;11.10;9.10;;;19.00;99.90;;;;;;5054800;28;20048;-70
2022/11/13 12:29:40;;;;;;;10.70;9.40;;;19.00;99.90;;;;;;5043908;28;20126;-71
2022/11/13 12:32:24;;;;;;;12.35;9.52;;;19.00;99.90;;;;;;5074293;28;20052;-71
2022/11/13 12:34:54;;;;;;;10.45;9.40;;;19.10;99.90;;;;;;5064751;28;20503;-71
2022/11/13 12:37:33;;;;;;;12.18;9.55;;;19.10;99.90;;;;;;5058353;28;20036;-70
2022/11/13 12:40:11;;;;;;;10.75;9.65;;;19.40;99.90;;;;;;5073364;28;20129;-71
2022/11/13 12:42:52;;;;;;;12.20;9.80;;;19.50;99.90;;;;;;5073662;28;20047;-71
2022/11/13 12:45:43;;;;;;;11.88;9.75;;;19.40;99.90;;;;;;5074451;28;20044;-70
2022/11/13 12:48:15;;;;;;;11.13;9.63;;;19.50;99.90;;;;;;5057902;28;20040;-71
2022/11/13 12:50:41;;;;;;;12.52;10.18;;;19.40;99.90;;;;;;5041706;28;20476;-70
2022/11/13 12:53:11;;;;;;;10.75;9.60;;;19.80;99.90;;;;;;5057272;28;20036;-71
2022/11/13 12:55:40;;;;;;;10.95;9.77;;;20.10;99.90;;;;;;5041268;28;20032;-70
2022/11/13 12:58:07;;;;;;;12.20;10.20;;;20.50;99.90;;;;;;5057582;28;20040;-71
2022/11/13 13:00:35;;;;;;;10.90;9.80;;;20.60;99.90;;;;;;5073905;28;20421;-72
2022/11/13 13:03:14;;;;;;;11.05;9.23;;;20.90;99.90;;;;;;5039748;28;20474;-70
2022/11/13 13:06:18;;;;;;;10.45;9.35;;;21.20;99.90;;;;;;5056920;28;20567;-71
2022/11/13 13:08:59;;;;;;;12.48;9.95;;;21.70;99.90;;;;;;5076464;28;20051;-69
2022/11/13 13:11:42;;;;;;;11.15;10.05;;;21.70;99.90;;;;;;5059562;28;20097;-70
2022/11/13 13:14:22;;;;;;;10.50;9.20;;;22.20;99.90;;;;;;5076451;28;20044;-70
2022/11/13 13:16:48;;;;;;;11.10;9.50;;;22.40;99.90;;;;;;5058956;28;20080;-70
2022/11/13 13:19:29;;;;;;;11.18;9.52;;;22.50;99.90;;;;;;5076011;28;20075;-70
2022/11/13 13:21:55;;;;;;;11.05;9.85;;;22.60;99.90;;;;;;5059167;28;20038;-70
2022/11/13 13:24:28;;;;;;;10.40;9.23;;;22.60;99.90;;;;;;5059434;28;20032;-70
2022/11/13 13:26:55;;;;;;;11.95;9.68;;;22.60;93.30;;;;;;5075761;28;20043;-70
2022/11/13 13:29:23;;;;;;;10.70;9.27;;;22.70;99.90;;;;;;5059275;28;20479;-70
2022/11/13 13:32:26;;;;;;;10.90;9.88;;;22.90;99.60;;;;;;5075976;28;20025;-70
2022/11/13 13:34:52;;;;;;;11.15;9.95;;;23.20;92.80;;;;;;5059179;28;20131;-70
2022/11/13 13:37:30;;;;;;;11.70;9.75;;;23.10;99.90;;;;;;5075571;28;20494;-70
2022/11/13 13:40:10;;;;;;;10.38;9.35;;;22.90;95.90;;;;;;5075608;28;20094;-70
2022/11/13 13:43:05;;;;;;;11.40;10.10;;;22.80;94.00;;;;;;5076036;28;20063;-70
2022/11/13 13:45:39;;;;;;;11.45;10.32;;;22.40;92.70;;;;;;5075829;28;20048;-70
2022/11/13 13:48:09;;;;;;;12.55;9.40;;;22.50;98.60;;;;;;5075282;28;20043;-70
2022/11/13 13:50:41;;;;;;;10.30;9.30;;;22.70;98.20;;;;;;5058771;28;20503;-70
2022/11/13 13:53:10;;;;;;;10.32;9.32;;;22.60;94.00;;;;;;5075442;28;20105;-70
2022/11/13 13:55:45;;;;;;;10.57;9.48;;;22.40;96.00;;;;;;5058650;28;20044;-70
2022/11/13 13:58:15;;;;;;;11.20;10.00;;;22.40;96.00;;;;;;5058838;28;20036;-70
2022/11/13 14:00:40;;;;;;;11.50;10.30;;;22.20;95.50;;;;;;5067272;28;20099;-70
2022/11/13 14:03:20;;;;;;;12.85;9.98;;;22.30;98.70;;;;;;5058344;28;20079;-70
2022/11/13 14:05:45;;;;;;;12.18;10.55;;;22.40;91.50;;;;;;5075015;28;20043;-72
2022/11/13 14:08:19;;;;;;;11.27;10.18;;;22.60;96.80;;;;;;5058523;28;20044;-70
2022/11/13 14:10:45;;;;;;;12.52;10.90;;;22.70;93.30;;;;;;5058651;28;20093;-69
2022/11/13 14:13:23;;;;;;;12.07;10.85;;;22.90;94.90;;;;;;5075267;28;20097;-69
2022/11/13 14:15:59;;;;;;;12.80;11.07;;;22.70;89.20;;;;;;5074496;28;20044;-70
2022/11/13 14:18:26;;;;;;;12.18;10.45;;;22.80;87.70;;;;;;5058776;28;20469;-69
2022/11/13 14:21:03;;;;;;;12.30;10.55;;;22.80;91.60;;;;;;5075504;28;20040;-70
2022/11/13 14:23:41;;;;;;;14.13;9.73;;;22.70;91.10;;;;;;5058413;28;20114;-69
2022/11/13 14:26:12;;;;;;;12.18;10.98;;;22.90;87.90;;;;;;5058078;28;20122;-70
2022/11/13 14:28:47;;;;;;;10.73;9.73;;;22.90;90.40;;;;;;5074948;28;20488;-69
2022/11/13 14:31:14;;;;;;;11.10;10.00;;;23.10;83.50;;;;;;5058415;28;20439;-69
2022/11/13 14:33:45;;;;;;;10.60;9.50;;;22.90;90.60;;;;;;5041600;28;20104;-70
2022/11/13 14:36:13;;;;;;;11.43;9.55;;;22.70;86.20;;;;;;5057819;28;20500;-69
2022/11/13 14:38:45;;;;;;;10.80;9.65;;;22.60;88.60;;;;;;5056777;28;20047;-69
2022/11/13 14:41:21;;;;;;;11.10;9.88;;;22.50;88.40;;;;;;5074398;28;20066;-70
2022/11/13 14:43:51;;;;;;;13.13;10.05;;;22.40;87.30;;;;;;5074218;28;20040;-70